Time;durP1;ratioP1;P1;durP2;ratioP2;P2;SDS_P1;SDS_P2;PMS_P1;PMS_P2;Temp;Humidity;BMP_temperature;BMP_pressure;BME280_temperature;BME280_humidity;BME280_pressure;Samples;Min_cycle;Max_cycle;Signal;HPM_P1;HPM_P2
2021/04/19 00:02:18;;;;;;;13.70;8.57;;;;;;;10.93;47.42;101233.59;5053041;28;20424;-83
2021/04/19 00:04:43;;;;;;;13.55;9.10;;;;;;;11.03;47.47;101231.28;5052537;28;20438;-84
2021/04/19 00:07:09;;;;;;;14.23;9.50;;;;;;;11.03;47.50;101232.13;5052843;28;20025;-84
2021/04/19 00:09:36;;;;;;;13.68;9.10;;;;;;;10.89;48.16;101230.28;5052700;28;20459;-84
2021/04/19 00:12:03;;;;;;;13.40;8.43;;;;;;;10.93;47.73;101223.06;5052846;28;20402;-83
2021/04/19 00:14:28;;;;;;;13.80;9.90;;;;;;;10.69;47.44;101226.13;5052423;28;20035;-83
2021/04/19 00:16:53;;;;;;;22.52;10.65;;;;;;;10.46;48.38;101229.19;5052772;28;20017;-84
2021/04/19 00:19:19;;;;;;;18.90;11.02;;;;;;;10.50;48.42;101225.44;5052549;28;20386;-84
2021/04/19 00:21:44;;;;;;;17.63;10.32;;;;;;;10.63;48.00;101218.59;5052526;28;20490;-84
2021/04/19 00:24:09;;;;;;;17.90;9.38;;;;;;;10.48;48.26;101211.56;5052485;28;20032;-84
2021/04/19 00:26:35;;;;;;;17.58;10.13;;;;;;;10.44;48.47;101212.66;5052577;28;20028;-83
2021/04/19 00:29:00;;;;;;;18.65;9.65;;;;;;;10.38;48.77;101210.38;5053184;28;20035;-83
2021/04/19 00:31:25;;;;;;;18.25;9.98;;;;;;;10.36;48.39;101204.34;5052394;28;20085;-83
2021/04/19 00:33:51;;;;;;;13.88;8.60;;;;;;;10.35;47.98;101206.16;5050762;28;20479;-83
2021/04/19 00:36:16;;;;;;;14.52;8.43;;;;;;;10.38;48.32;101205.13;5052217;28;20033;-84
2021/04/19 00:38:42;;;;;;;13.32;8.25;;;;;;;10.43;48.24;101211.81;5052335;28;20053;-83
2021/04/19 00:41:10;;;;;;;14.50;9.05;;;;;;;10.48;48.76;101203.69;5052242;28;20159;-83
2021/04/19 00:43:37;;;;;;;12.82;8.60;;;;;;;10.54;48.92;101205.97;5052190;28;20037;-83
2021/04/19 00:46:04;;;;;;;12.68;8.38;;;;;;;10.46;48.87;101192.41;5052246;28;20091;-84
2021/04/19 00:48:31;;;;;;;15.85;9.35;;;;;;;10.46;49.14;101197.66;5052366;28;20364;-84
2021/04/19 00:50:57;;;;;;;13.15;7.88;;;;;;;10.35;48.85;101194.78;5052120;28;20036;-83
2021/04/19 00:53:25;;;;;;;12.55;8.65;;;;;;;10.31;48.93;101197.59;5051685;28;20033;-83
2021/04/19 00:55:52;;;;;;;12.50;8.38;;;;;;;10.24;49.16;101190.94;5052281;28;20032;-84
2021/04/19 00:58:18;;;;;;;14.43;9.23;;;;;;;10.25;48.58;101195.25;5050670;28;20034;-83
2021/04/19 01:00:44;;;;;;;18.27;9.75;;;;;;;10.42;48.55;101199.59;5052043;28;20036;-83
2021/04/19 01:03:09;;;;;;;21.25;10.10;;;;;;;10.38;48.79;101197.25;5051667;28;20028;-83
2021/04/19 01:05:37;;;;;;;13.68;8.93;;;;;;;10.19;48.48;101198.22;5052515;28;20147;-83
2021/04/19 01:08:03;;;;;;;17.23;9.25;;;;;;;10.18;48.99;101193.88;5051961;28;20057;-84
2021/04/19 01:10:29;;;;;;;17.17;10.75;;;;;;;10.06;48.93;101184.88;5051809;28;20029;-84
2021/04/19 01:12:55;;;;;;;15.27;10.48;;;;;;;10.15;47.89;101194.06;5051904;28;20383;-84
2021/04/19 01:15:21;;;;;;;16.73;10.15;;;;;;;10.12;48.31;101183.72;5051789;28;20025;-84
2021/04/19 01:17:47;;;;;;;19.05;10.20;;;;;;;10.17;48.14;101192.22;5051918;28;20025;-84
2021/04/19 01:20:16;;;;;;;15.45;9.02;;;;;;;10.27;48.74;101193.41;5050471;28;20033;-83
2021/04/19 01:22:43;;;;;;;16.92;9.98;;;;;;;10.29;48.21;101186.28;5051606;28;20057;-83
2021/04/19 01:25:14;;;;;;;17.23;9.82;;;;;;;10.32;47.91;101186.13;5050717;28;20021;-83
2021/04/19 01:27:39;;;;;;;14.82;9.30;;;;;;;10.23;48.53;101185.75;5051838;28;20519;-84
2021/04/19 01:30:06;;;;;;;16.27;9.57;;;;;;;10.06;48.66;101181.44;5052349;28;20123;-83
2021/04/19 01:32:31;;;;;;;16.38;10.05;;;;;;;9.98;48.51;101192.31;5051535;28;20108;-83
2021/04/19 01:34:57;;;;;;;13.82;9.02;;;;;;;9.88;48.86;101186.72;5051549;28;20100;-83
2021/04/19 01:37:23;;;;;;;15.10;9.70;;;;;;;9.72;49.38;101185.84;5051827;28;20021;-83
2021/04/19 01:39:49;;;;;;;18.13;10.15;;;;;;;9.43;50.51;101184.69;5051430;28;20021;-83
2021/04/19 01:42:14;;;;;;;16.48;9.50;;;;;;;9.27;49.90;101188.09;5051477;28;20017;-84
2021/04/19 01:44:39;;;;;;;17.75;9.88;;;;;;;9.15;50.29;101186.09;5051770;28;20079;-83
2021/04/19 01:47:05;;;;;;;16.15;9.77;;;;;;;9.07;50.47;101183.00;5051703;28;20028;-84
2021/04/19 01:49:31;;;;;;;19.58;10.05;;;;;;;9.18;50.54;101177.22;5051485;28;20478;-84
2021/04/19 01:51:57;;;;;;;23.27;13.23;;;;;;;9.24;51.16;101179.53;5051611;28;20029;-84
2021/04/19 01:54:23;;;;;;;17.42;10.00;;;;;;;9.33;51.02;101179.06;5031721;28;20025;-83
2021/04/19 01:56:49;;;;;;;16.25;10.20;;;;;;;9.33;50.86;101179.91;5031537;28;20028;-83
2021/04/19 01:59:14;;;;;;;19.05;10.52;;;;;;;9.34;50.98;101170.28;5031545;28;20026;-83
2021/04/19 02:01:53;;;;;;;16.70;11.07;;;;;;;9.50;51.13;101171.19;5032174;28;20099;-84
2021/04/19 02:04:28;;;;;;;15.13;10.27;;;;;;;8.85;52.61;101170.94;5049833;28;20025;-83
2021/04/19 02:07:24;;;;;;;17.88;10.45;;;;;;;8.65;53.55;101171.91;5051492;28;20025;-83
2021/04/19 02:10:10;;;;;;;17.45;10.40;;;;;;;8.60;52.72;101179.13;5052656;28;20095;-83
2021/04/19 02:12:53;;;;;;;15.32;9.73;;;;;;;8.64;52.80;101174.59;5054795;28;20040;-83
2021/04/19 02:15:40;;;;;;;16.67;9.10;;;;;;;8.64;52.87;101185.91;5054929;28;20552;-83
2021/04/19 02:18:18;;;;;;;15.90;9.63;;;;;;;8.44;54.40;101183.38;5054879;28;20512;-83
2021/04/19 02:20:53;;;;;;;14.88;9.25;;;;;;;8.41;53.91;101180.88;5053207;28;20403;-84
2021/04/19 02:23:30;;;;;;;18.20;9.63;;;;;;;8.50;54.11;101180.47;5054879;28;20078;-84
2021/04/19 02:26:12;;;;;;;18.48;11.25;;;;;;;8.45;54.05;101183.31;5054779;28;20028;-83
2021/04/19 02:28:43;;;;;;;20.27;10.80;;;;;;;8.34;54.19;101181.16;5054727;28;20021;-84
2021/04/19 02:31:11;;;;;;;17.52;10.40;;;;;;;8.07;54.73;101174.56;5067005;22;20407;-88
2021/04/19 02:33:40;;;;;;;18.58;9.70;;;;;;;8.23;55.40;101172.09;5054220;28;20383;-89
2021/04/19 02:36:10;;;;;;;15.68;10.27;;;;;;;8.30;55.08;101163.91;5054614;28;20589;-88
2021/04/19 02:38:38;;;;;;;16.30;10.25;;;;;;;8.82;52.72;101157.16;5054688;28;20464;-88
2021/04/19 02:41:06;;;;;;;17.05;10.50;;;;;;;9.05;52.09;101166.50;5052690;28;20106;-88
2021/04/19 02:43:34;;;;;;;18.88;10.75;;;;;;;9.02;52.22;101172.72;5054224;28;20017;-88
2021/04/19 02:46:01;;;;;;;19.40;10.75;;;;;;;8.48;53.36;101171.84;5054388;28;20108;-88
2021/04/19 02:48:27;;;;;;;17.25;10.63;;;;;;;8.79;53.40;101160.78;5054458;28;20024;-88
2021/04/19 02:50:54;;;;;;;18.45;9.57;;;;;;;8.96;52.25;101165.16;5053646;28;20055;-88
2021/04/19 02:53:21;;;;;;;15.65;9.40;;;;;;;8.93;52.49;101165.34;5054037;28;20051;-88
2021/04/19 02:55:48;;;;;;;16.52;10.15;;;;;;;8.88;52.77;101168.16;5053040;28;20033;-89
2021/04/19 02:58:18;;;;;;;18.85;10.02;;;;;;;8.87;52.88;101161.25;5054232;28;20029;-88
2021/04/19 03:00:47;;;;;;;16.17;9.70;;;;;;;8.89;53.05;101174.28;5053961;28;20059;-85
2021/04/19 03:03:26;;;;;;;18.02;10.45;;;;;;;9.00;52.36;101168.50;5053250;28;20064;-88
2021/04/19 03:05:54;;;;;;;19.05;10.30;;;;;;;9.01;52.11;101165.81;5052750;28;20093;-88
2021/04/19 03:08:21;;;;;;;24.20;11.25;;;;;;;8.90;52.78;101170.72;5053215;28;20063;-89
2021/04/19 03:10:58;;;;;;;17.40;8.85;;;;;;;8.93;52.76;101170.56;5054625;28;20029;-86
2021/04/19 03:13:26;;;;;;;19.30;10.52;;;;;;;8.73;53.26;101169.75;5054207;28;20075;-85
2021/04/19 03:15:55;;;;;;;21.70;11.57;;;;;;;8.77;53.06;101164.38;5054338;28;20024;-89
2021/04/19 03:18:22;;;;;;;24.58;12.23;;;;;;;8.45;53.31;101158.91;5055870;28;20033;-88
2021/04/19 03:20:51;;;;;;;20.08;12.07;;;;;;;8.43;53.74;101160.75;5053722;28;20099;-86
2021/04/19 03:23:18;;;;;;;18.00;10.88;;;;;;;8.56;52.91;101163.63;5056139;28;20108;-86
2021/04/19 03:25:45;;;;;;;21.92;11.90;;;;;;;8.57;53.72;101167.94;5055677;28;20368;-86
2021/04/19 03:28:11;;;;;;;15.63;10.65;;;;;;;8.00;55.02;101157.44;5052752;28;20025;-86
2021/04/19 03:30:37;;;;;;;18.55;10.68;;;;;;;8.23;54.77;101146.78;5054158;28;20041;-86
2021/04/19 03:33:04;;;;;;;16.65;10.80;;;;;;;8.49;54.04;101158.69;5053131;28;20040;-86
2021/04/19 03:35:35;;;;;;;17.70;10.68;;;;;;;8.60;53.89;101158.19;5055656;28;20033;-86
2021/04/19 03:38:03;;;;;;;15.82;10.27;;;;;;;8.35;54.08;101158.44;5053372;28;20539;-86
2021/04/19 03:40:34;;;;;;;20.33;11.77;;;;;;;8.71;53.59;101155.06;5052943;28;20514;-86
2021/04/19 03:43:10;;;;;;;19.60;11.10;;;;;;;8.82;53.80;101163.22;5051991;28;20094;-86
2021/04/19 03:45:38;;;;;;;18.17;11.57;;;;;;;8.73;53.57;101155.84;5052083;28;20506;-86
2021/04/19 03:48:08;;;;;;;22.60;12.10;;;;;;;8.84;53.03;101160.53;5053231;28;20043;-86
2021/04/19 03:50:38;;;;;;;17.08;10.43;;;;;;;8.69;53.25;101147.28;5051539;28;20036;-85
2021/04/19 03:53:05;;;;;;;21.85;13.20;;;;;;;8.73;53.50;101161.91;5052142;28;20029;-86
2021/04/19 03:55:30;;;;;;;18.85;12.07;;;;;;;8.77;53.23;101153.88;5052332;28;20113;-86
2021/04/19 03:57:56;;;;;;;19.45;10.52;;;;;;;8.77;53.11;101143.41;5062641;28;20041;-85
2021/04/19 04:00:23;;;;;;;20.50;12.35;;;;;;;8.71;53.52;101150.66;5065974;28;20033;-85
2021/04/19 04:02:52;;;;;;;22.58;12.27;;;;;;;8.74;53.49;101154.91;5053183;28;20028;-86
2021/04/19 04:05:19;;;;;;;19.85;11.02;;;;;;;8.57;53.49;101141.75;5052728;28;20108;-86
2021/04/19 04:07:47;;;;;;;21.27;11.32;;;;;;;8.52;53.20;101139.38;5052923;28;20031;-86
2021/04/19 04:10:12;;;;;;;17.65;11.80;;;;;;;8.61;53.29;101151.16;5051126;28;20029;-86
2021/04/19 04:12:38;;;;;;;18.65;11.70;;;;;;;8.45;53.26;101148.44;5051281;28;20079;-86
2021/04/19 04:15:05;;;;;;;17.95;11.65;;;;;;;8.61;52.96;101146.78;5051337;28;20116;-87
2021/04/19 04:17:31;;;;;;;16.75;11.68;;;;;;;8.52;53.47;101136.75;5052457;28;20486;-87
2021/04/19 04:19:56;;;;;;;21.55;11.88;;;;;;;8.39;53.44;101157.38;5052182;28;20067;-86
2021/04/19 04:22:23;;;;;;;22.48;13.10;;;;;;;8.00;54.62;101152.22;5052627;28;20523;-86
2021/04/19 04:24:49;;;;;;;18.70;12.32;;;;;;;8.39;53.33;101143.44;5051178;28;20032;-87
2021/04/19 04:27:14;;;;;;;20.02;11.25;;;;;;;8.43;53.33;101139.81;5052461;28;20411;-86
2021/04/19 04:29:39;;;;;;;21.42;12.20;;;;;;;8.43;53.93;101145.91;5052524;28;20101;-86
2021/04/19 04:32:05;;;;;;;18.35;11.90;;;;;;;8.30;54.08;101140.34;5051861;28;20024;-87
2021/04/19 04:34:31;;;;;;;17.77;11.95;;;;;;;8.19;53.91;101142.59;5052370;28;20025;-87
2021/04/19 04:36:56;;;;;;;19.40;11.13;;;;;;;8.11;54.34;101145.56;5050910;28;20545;-87
2021/04/19 04:39:22;;;;;;;22.55;12.07;;;;;;;8.25;54.42;101147.56;5050473;28;20042;-87
2021/04/19 04:41:49;;;;;;;18.80;11.32;;;;;;;8.27;53.81;101140.50;5050781;28;20025;-86
2021/04/19 04:44:24;;;;;;;21.45;12.50;;;;;;;8.26;53.75;101137.97;5050695;28;20017;-86
2021/04/19 04:47:08;;;;;;;20.85;12.20;;;;;;;8.33;54.09;101142.84;5050982;28;20115;-86
2021/04/19 04:49:41;;;;;;;19.48;12.48;;;;;;;8.32;54.08;101148.97;5050606;28;20074;-87
2021/04/19 04:52:08;;;;;;;23.25;12.57;;;;;;;8.05;54.61;101142.41;5050660;28;20060;-87
2021/04/19 04:54:38;;;;;;;21.13;13.60;;;;;;;8.09;54.78;101152.66;5052148;28;20028;-87
2021/04/19 04:57:06;;;;;;;17.83;12.45;;;;;;;7.90;55.51;101146.56;5050681;28;20032;-87
2021/04/19 04:59:32;;;;;;;21.17;13.88;;;;;;;7.60;56.39;101143.53;5050290;28;20033;-86
2021/04/19 05:01:58;;;;;;;25.17;14.02;;;;;;;7.42;57.86;101134.72;5050583;28;20021;-86
2021/04/19 05:04:26;;;;;;;22.45;14.52;;;;;;;7.29;58.41;101140.50;5049048;28;20070;-87
2021/04/19 05:06:53;;;;;;;22.52;14.63;;;;;;;7.66;56.93;101138.03;5064215;28;20028;-87
2021/04/19 05:09:18;;;;;;;22.67;14.02;;;;;;;7.89;55.61;101140.47;5067515;28;20021;-87
2021/04/19 05:11:44;;;;;;;22.98;14.50;;;;;;;7.64;56.71;101139.88;5051526;28;20139;-87
2021/04/19 05:14:09;;;;;;;24.70;13.52;;;;;;;7.88;55.92;101138.78;5052607;28;20044;-88
2021/04/19 05:16:35;;;;;;;25.50;14.80;;;;;;;7.96;56.68;101133.22;5051738;28;20041;-87
2021/04/19 05:19:04;;;;;;;22.80;14.00;;;;;;;7.89;57.13;101140.47;5051581;28;20083;-87
2021/04/19 05:21:29;;;;;;;23.52;14.63;;;;;;;8.08;56.54;101134.44;5051356;28;20021;-87
2021/04/19 05:23:56;;;;;;;23.20;13.38;;;;;;;8.19;56.42;101132.16;5040849;28;20084;-87
2021/04/19 05:26:21;;;;;;;25.30;14.93;;;;;;;8.17;56.21;101136.59;5066243;28;20028;-87
2021/04/19 05:28:48;;;;;;;24.50;13.85;;;;;;;8.28;56.52;101139.56;5050380;28;20029;-88
2021/04/19 05:31:14;;;;;;;19.67;12.63;;;;;;;8.26;56.53;101127.50;5051880;28;20090;-87
2021/04/19 05:33:40;;;;;;;22.90;14.20;;;;;;;8.37;56.35;101127.81;5050303;28;20052;-87
2021/04/19 05:36:10;;;;;;;29.83;14.73;;;;;;;8.46;56.37;101121.34;5051665;28;20061;-87
2021/04/19 05:38:37;;;;;;;28.63;14.20;;;;;;;8.41;56.72;101125.91;5051378;28;20028;-88
2021/04/19 05:41:04;;;;;;;23.17;13.80;;;;;;;8.42;56.05;101122.41;5051298;28;20033;-87
2021/04/19 05:43:30;;;;;;;18.85;12.52;;;;;;;8.44;56.04;101116.19;5049280;28;20074;-88
2021/04/19 05:45:57;;;;;;;20.38;13.27;;;;;;;8.46;55.55;101121.34;5053534;28;20029;-87
2021/04/19 05:48:23;;;;;;;21.02;12.35;;;;;;;8.38;54.81;101131.31;5055554;28;20091;-87
2021/04/19 05:50:52;;;;;;;20.15;12.77;;;;;;;8.24;55.53;101132.78;5053865;28;20433;-88
2021/04/19 05:53:18;;;;;;;18.60;12.98;;;;;;;7.65;57.44;101120.66;5055107;28;20035;-87
2021/04/19 05:55:44;;;;;;;23.27;13.13;;;;;;;7.65;57.08;101126.75;5055495;28;20025;-87
2021/04/19 05:58:31;;;;;;;20.63;12.82;;;;;;;7.74;57.42;101130.69;5054196;28;20017;-87
2021/04/19 06:01:08;;;;;;;20.10;13.30;;;;;;;7.61;58.12;101124.34;5056327;28;20040;-87
2021/04/19 06:03:59;;;;;;;24.27;12.75;;;;;;;7.44;58.33;101122.44;5055323;28;20360;-87
2021/04/19 06:06:39;;;;;;;15.30;11.52;;;;;;;7.43;58.70;101126.84;5056903;28;20507;-87
2021/04/19 06:09:07;;;;;;;23.63;12.65;;;;;;;7.34;58.77;101125.44;5055308;28;20031;-88
2021/04/19 06:11:43;;;;;;;19.13;12.07;;;;;;;8.04;57.13;101125.03;5055188;28;20100;-88
2021/04/19 06:14:15;;;;;;;23.00;13.57;;;;;;;7.66;58.01;101131.06;5055475;28;20032;-87
2021/04/19 06:16:42;;;;;;;22.77;12.90;;;;;;;7.41;59.23;101133.06;5051233;28;20028;-87
2021/04/19 06:19:14;;;;;;;24.55;14.45;;;;;;;7.30;60.07;101129.09;5054497;28;20043;-87
2021/04/19 06:21:39;;;;;;;24.75;14.20;;;;;;;8.05;57.24;101129.31;5053782;28;20036;-87
2021/04/19 06:24:07;;;;;;;23.30;14.07;;;;;;;8.09;57.40;101134.34;5051506;28;20025;-87
2021/04/19 06:26:34;;;;;;;23.08;13.85;;;;;;;8.17;57.21;101139.22;5048583;28;20025;-87
2021/04/19 06:29:00;;;;;;;22.45;14.07;;;;;;;8.39;57.41;101138.22;5052067;28;20029;-87
2021/04/19 06:31:26;;;;;;;21.58;13.80;;;;;;;8.59;57.41;101142.53;5054776;28;20027;-87
2021/04/19 06:34:03;;;;;;;19.77;12.43;;;;;;;8.88;56.55;101141.97;5063740;28;20033;-87
2021/04/19 06:36:42;;;;;;;18.63;12.13;;;;;;;9.03;56.03;101140.38;5065405;28;20028;-87
2021/04/19 06:39:10;;;;;;;23.42;13.98;;;;;;;9.17;56.25;101144.09;5052888;28;20514;-87
2021/04/19 06:41:35;;;;;;;22.27;14.07;;;;;;;10.54;53.63;101136.84;5048406;28;20472;-87
2021/04/19 06:44:01;;;;;;;22.17;13.23;;;;;;;11.58;50.44;101136.03;5051518;28;20056;-87
2021/04/19 06:46:31;;;;;;;18.08;12.82;;;;;;;12.90;47.03;101135.63;5072860;28;20109;-87
2021/04/19 06:48:57;;;;;;;24.30;12.48;;;;;;;14.01;44.34;101129.88;5053341;28;20503;-87
2021/04/19 06:51:23;;;;;;;20.13;12.32;;;;;;;14.94;42.44;101135.47;5050210;28;20068;-88
2021/04/19 06:53:55;;;;;;;20.70;12.85;;;;;;;15.95;39.07;101133.97;5058316;28;20033;-89
2021/04/19 06:56:25;;;;;;;21.02;13.05;;;;;;;16.49;38.25;101132.31;5054254;28;20479;-87
2021/04/19 06:58:52;;;;;;;19.85;12.38;;;;;;;16.73;37.49;101137.44;5054599;28;20044;-88
2021/04/19 07:01:22;;;;;;;22.17;13.05;;;;;;;17.76;35.27;101137.56;5046280;28;20025;-88
2021/04/19 07:04:05;;;;;;;20.50;13.02;;;;;;;18.67;33.45;101131.41;5052488;28;20556;-88
2021/04/19 07:06:39;;;;;;;24.23;13.05;;;;;;;19.21;32.14;101129.97;5053098;28;20029;-88
2021/04/19 07:09:07;;;;;;;22.23;13.90;;;;;;;19.89;31.22;101126.31;5050215;28;20044;-88
2021/04/19 07:11:35;;;;;;;23.50;13.35;;;;;;;20.38;30.99;101134.88;5053876;28;20028;-88
2021/04/19 07:14:02;;;;;;;17.80;12.45;;;;;;;20.96;29.54;101137.13;5051622;28;20036;-88
2021/04/19 07:16:27;;;;;;;18.58;12.07;;;;;;;21.54;29.14;101116.16;5050352;28;20620;-89
2021/04/19 07:18:53;;;;;;;19.58;13.48;;;;;;;21.23;29.37;101119.31;5047061;28;20104;-90
2021/04/19 07:21:18;;;;;;;17.88;12.93;;;;;;;21.11;28.87;101113.38;5061719;28;20116;-90
2021/04/19 07:23:44;;;;;;;19.48;13.55;;;;;;;21.78;28.50;101121.66;5053258;28;20021;-89
2021/04/19 07:26:10;;;;;;;21.50;13.90;;;;;;;21.77;28.35;101125.31;5051857;28;20079;-87
2021/04/19 07:28:37;;;;;;;21.73;14.25;;;;;;;21.78;28.27;101118.13;5063985;28;20028;-92
2021/04/19 07:31:04;;;;;;;22.88;14.25;;;;;;;22.49;27.67;101116.88;5064952;22;20037;-84
2021/04/19 07:33:32;;;;;;;20.80;13.50;;;;;;;22.53;27.61;101122.72;5046946;28;20033;-84
2021/04/19 07:36:18;;;;;;;19.40;13.63;;;;;;;22.38;27.50;101122.53;5046831;28;20060;-84
2021/04/19 07:38:44;;;;;;;18.45;13.70;;;;;;;22.82;26.89;101121.41;5045672;28;20502;-85
2021/04/19 07:41:09;;;;;;;18.35;12.82;;;;;;;22.78;27.41;101111.03;5047679;28;20033;-84
2021/04/19 07:43:39;;;;;;;20.55;14.45;;;;;;;23.67;26.07;101116.44;5046300;28;20037;-85
2021/04/19 07:46:16;;;;;;;20.60;13.48;;;;;;;23.94;25.61;101119.75;5048532;28;20028;-85
2021/04/19 07:48:49;;;;;;;18.45;13.48;;;;;;;24.30;25.36;101113.84;5045765;28;20078;-85
2021/04/19 07:51:29;;;;;;;16.67;12.73;;;;;;;24.09;24.49;101123.38;5054029;28;20037;-84
2021/04/19 07:54:16;;;;;;;21.02;14.00;;;;;;;24.43;25.12;101119.47;5054476;28;20048;-85
2021/04/19 07:56:45;;;;;;;17.77;13.52;;;;;;;25.27;24.07;101116.78;5056627;28;20033;-85
2021/04/19 07:59:31;;;;;;;18.60;13.25;;;;;;;26.16;22.67;101118.63;5042421;28;20129;-86
2021/04/19 08:02:09;;;;;;;20.00;14.18;;;;;;;25.36;23.36;101122.13;5060363;28;20029;-86
2021/04/19 08:04:45;;;;;;;18.73;13.75;;;;;;;25.83;23.34;101120.88;5037827;28;20036;-86
2021/04/19 08:07:20;;;;;;;20.55;12.15;;;;;;;26.28;22.57;101116.25;5051268;28;20040;-86
2021/04/19 08:10:04;;;;;;;19.65;13.05;;;;;;;26.35;22.24;101116.34;5050547;28;20111;-86
2021/04/19 08:12:38;;;;;;;17.08;12.40;;;;;;;26.26;22.60;101111.09;5046088;28;20033;-86
2021/04/19 08:15:10;;;;;;;13.77;11.15;;;;;;;25.86;22.81;101112.44;5044455;28;20057;-86
2021/04/19 08:17:35;;;;;;;;;;;;;;;26.93;21.66;101109.03;5048907;28;20411;-86
2021/04/19 08:20:08;;;;;;;14.70;11.75;;;;;;;26.80;22.09;101109.78;5051420;28;19916;-87
2021/04/19 08:22:34;;;;;;;19.35;11.75;;;;;;;27.18;21.33;101114.84;5048958;28;20021;-86
2021/04/19 08:25:12;;;;;;;20.05;12.55;;;;;;;27.48;20.97;101101.16;5049863;28;20017;-86
2021/04/19 08:27:38;;;;;;;18.00;13.27;;;;;;;27.92;21.10;101091.84;5044618;28;20024;-86
2021/04/19 08:30:06;;;;;;;15.32;12.40;;;;;;;27.90;20.78;101091.19;5043060;28;20063;-87
2021/04/19 08:32:32;;;;;;;18.63;12.35;;;;;;;28.14;20.37;101095.25;5046336;28;20039;-87
2021/04/19 08:34:59;;;;;;;19.70;12.10;;;;;;;28.57;19.83;101096.78;5049026;28;20391;-86
2021/04/19 08:37:28;;;;;;;13.30;11.20;;;;;;;29.31;19.56;101093.03;5040016;28;20465;-86
2021/04/19 08:39:55;;;;;;;28.40;12.50;;;;;;;27.92;20.60;101086.44;5043684;28;20056;-86
2021/04/19 08:42:21;;;;;;;16.70;11.95;;;;;;;28.41;20.07;101079.09;5044296;28;20028;-87
2021/04/19 08:44:47;;;;;;;19.73;13.27;;;;;;;28.53;19.63;101082.03;5043732;28;20383;-87
2021/04/19 08:47:20;;;;;;;17.13;13.25;;;;;;;28.97;20.25;101094.09;5046715;28;20529;-86
2021/04/19 08:49:47;;;;;;;17.85;11.82;;;;;;;29.55;18.78;101085.28;5047540;28;20482;-87
2021/04/19 08:52:15;;;;;;;15.77;12.00;;;;;;;29.71;18.25;101083.97;5043056;28;20057;-87
2021/04/19 08:54:40;;;;;;;23.10;12.90;;;;;;;29.65;19.25;101082.94;5040404;28;20395;-86
2021/04/19 08:57:06;;;;;;;17.63;11.70;;;;;;;30.43;18.24;101093.63;5047579;28;20098;-87
2021/04/19 08:59:32;;;;;;;20.77;12.95;;;;;;;30.61;18.07;101087.44;5050099;28;20112;-86
2021/04/19 09:01:58;;;;;;;15.00;12.05;;;;;;;30.99;17.54;101085.69;5043642;28;20113;-86
2021/04/19 09:04:24;;;;;;;16.60;11.82;;;;;;;31.09;17.28;101091.44;5032391;28;20132;-87
2021/04/19 09:06:53;;;;;;;20.33;12.70;;;;;;;30.75;17.79;101085.44;5037974;28;20116;-87
2021/04/19 09:09:30;;;;;;;21.92;12.13;;;;;;;30.99;16.90;101080.28;5049909;28;20105;-86
2021/04/19 09:11:56;;;;;;;15.60;11.98;;;;;;;31.67;16.41;101081.22;5049084;28;20033;-86
2021/04/19 09:14:33;;;;;;;15.07;11.18;;;;;;;32.60;15.47;101080.78;5044448;28;20033;-87
2021/04/19 09:17:01;;;;;;;17.27;12.35;;;;;;;32.20;16.94;101083.25;5039266;28;20025;-87
2021/04/19 09:19:27;;;;;;;16.20;11.40;;;;;;;31.61;16.90;101077.53;5050425;28;20037;-87
2021/04/19 09:21:52;;;;;;;17.05;12.20;;;;;;;31.11;16.69;101083.91;5054671;28;20025;-87
2021/04/19 09:24:22;;;;;;;17.67;11.48;;;;;;;31.49;17.23;101085.59;5053909;28;20383;-87
2021/04/19 09:26:52;;;;;;;15.77;11.18;;;;;;;31.53;16.78;101081.38;5047917;28;20067;-87
2021/04/19 09:29:27;;;;;;;13.98;10.65;;;;;;;32.54;15.32;101084.38;5052066;28;20036;-87
2021/04/19 09:32:01;;;;;;;19.92;13.30;;;;;;;30.80;16.34;101085.59;5038696;22;20046;-96
2021/04/19 09:34:48;;;;;;;17.55;12.60;;;;;;;31.14;17.04;101066.34;5061280;28;20028;-96
2021/04/19 09:37:42;;;;;;;21.42;12.98;;;;;;;30.55;16.45;101079.34;5039148;28;20025;-96
2021/04/19 09:40:16;;;;;;;19.08;12.32;;;;;;;31.77;15.43;101071.47;5032332;28;20057;-95
2021/04/19 09:42:54;;;;;;;15.73;11.45;;;;;;;32.43;14.63;101077.03;5011601;28;20033;-96
2021/04/19 09:45:56;;;;;;;17.52;13.32;;;;;;;32.05;15.15;101071.97;5021547;28;20040;-96
2021/04/19 09:48:31;;;;;;;18.13;12.95;;;;;;;32.30;14.71;101069.09;4975290;28;20489;-96
2021/04/19 09:50:58;;;;;;;17.30;13.05;;;;;;;32.18;15.26;101071.78;5002932;28;20078;-96
2021/04/19 09:53:27;;;;;;;18.02;12.40;;;;;;;32.07;15.06;101061.69;5022608;28;20026;-96
2021/04/19 09:55:52;;;;;;;19.05;11.95;;;;;;;32.81;14.51;101064.94;5017170;28;20028;-95
2021/04/19 09:58:19;;;;;;;16.58;12.30;;;;;;;32.07;15.15;101059.81;5029068;28;20033;-96
2021/04/19 10:00:46;;;;;;;14.75;10.65;;;;;;;32.72;14.32;101056.31;5023094;28;20377;-96
2021/04/19 10:03:39;;;;;;;17.45;11.85;;;;;;;33.30;14.08;101053.81;5030956;28;20026;-96
2021/04/19 10:06:06;;;;;;;16.17;11.45;;;;;;;32.52;14.99;101055.78;5034015;28;20018;-96
2021/04/19 10:08:35;;;;;;;19.02;11.98;;;;;;;32.77;15.00;101061.84;5030668;28;20050;-96
2021/04/19 10:11:03;;;;;;;19.67;12.15;;;;;;;32.99;14.54;101051.19;5029182;28;20026;-96
2021/04/19 10:13:37;;;;;;;18.42;12.70;;;;;;;33.23;14.28;101055.81;5024973;28;20369;-96
2021/04/19 10:16:12;;;;;;;15.30;11.98;;;;;;;33.38;14.52;101050.72;5033449;28;20052;-96
2021/04/19 10:18:40;;;;;;;19.40;13.05;;;;;;;32.34;15.37;101056.69;5025947;28;20017;-96
2021/04/19 10:21:08;;;;;;;14.57;10.93;;;;;;;33.70;13.27;101061.19;5031331;28;20040;-96
2021/04/19 10:23:41;;;;;;;14.70;12.27;;;;;;;33.21;13.84;101047.06;5229168;22;20072;-96
2021/04/19 10:26:10;;;;;;;16.13;11.38;;;;;;;33.94;13.28;101048.28;5076621;28;20057;-96
2021/04/19 10:28:40;;;;;;;20.05;11.93;;;;;;;33.19;14.12;101033.69;5065924;28;20335;-96
2021/04/19 10:31:16;;;;;;;16.43;12.13;;;;;;;32.23;14.74;101058.34;5083486;23;20041;-86
2021/04/19 10:33:48;;;;;;;16.83;12.07;;;;;;;32.24;15.12;101051.00;5070746;28;20296;-85
2021/04/19 10:36:22;;;;;;;13.77;10.63;;;;;;;32.94;14.25;101053.81;5062549;28;20029;-85
2021/04/19 10:39:09;;;;;;;16.75;10.98;;;;;;;32.22;13.98;101040.38;5068630;28;20043;-85
2021/04/19 10:41:36;;;;;;;15.10;10.65;;;;;;;31.69;15.93;101041.91;5055028;28;20104;-84
2021/04/19 10:44:06;;;;;;;14.20;10.32;;;;;;;33.40;12.91;101043.13;5034809;28;20108;-84
2021/04/19 10:46:33;;;;;;;12.27;9.55;;;;;;;33.44;13.20;101038.84;5040740;28;20026;-84
2021/04/19 10:49:00;;;;;;;17.25;9.73;;;;;;;32.31;13.98;101030.00;5045356;28;20023;-85
2021/04/19 10:51:32;;;;;;;14.82;9.27;;;;;;;33.10;13.86;101030.53;5052562;28;20475;-84
2021/04/19 10:54:01;;;;;;;12.40;9.93;;;;;;;32.21;13.99;101027.84;5040969;28;20025;-85
2021/04/19 10:56:28;;;;;;;16.52;9.32;;;;;;;33.26;12.77;101034.41;5040830;28;20087;-85
2021/04/19 10:58:57;;;;;;;12.27;8.88;;;;;;;32.64;12.82;101036.78;5046954;28;20112;-84
2021/04/19 11:01:30;;;;;;;18.63;8.43;;;;;;;32.30;13.46;101029.16;5050731;28;20450;-87
2021/04/19 11:03:57;;;;;;;12.02;8.23;;;;;;;32.15;13.74;101023.31;5050262;28;20029;-84
2021/04/19 11:06:23;;;;;;;14.88;7.55;;;;;;;30.44;15.11;101022.13;5042409;28;20103;-85
2021/04/19 11:09:00;;;;;;;12.70;8.98;;;;;;;31.54;14.91;101017.91;5046647;28;20439;-86
2021/04/19 11:11:30;;;;;;;10.45;7.63;;;;;;;32.44;13.54;101015.34;5062016;28;20390;-86
2021/04/19 11:14:22;;;;;;;12.43;8.15;;;;;;;33.38;11.76;101009.88;5060095;28;20506;-86
2021/04/19 11:16:58;;;;;;;11.40;8.15;;;;;;;32.87;13.42;101003.34;5047353;28;20044;-86
2021/04/19 11:19:41;;;;;;;13.93;6.90;;;;;;;34.04;12.59;101006.75;5043573;28;20033;-86
2021/04/19 11:22:32;;;;;;;12.50;8.45;;;;;;;32.98;13.47;100999.78;5052546;28;20025;-86
2021/04/19 11:25:11;;;;;;;10.15;7.25;;;;;;;33.17;13.34;100997.75;5052931;28;20025;-87
2021/04/19 11:27:36;;;;;;;11.60;7.60;;;;;;;33.48;13.57;100987.47;5048340;28;20064;-85